Abu Musa, Iran

8:17 AM IRST on September 22, 2014 (GMT +0330)
Abumusa | Change Station
CLOSE
Current Station
Airport
Location: ABUMUSA ISLAND,
Elevation: 23 ft
Nearby Weather Stations

Elev 23 ft 25.88 °N, 55.03 °E | Updated 47 minutes ago

Partly Cloudy
Partly Cloudy
90 °F
Feels Like 115 °F
N
7
Wind Variable Wind from East

Today
High -- | Low -- °F
--% Chance of Precip.
Yesterday
High -- | Low -- °F
Precip. -- in
5:39 AM 5:47 PM
Waning Crescent, 4% visible
Pressure 29.65 in
Visibility 3.7 miles
Clouds Few 2000 ft
Heat Index 115 °F
Dew Point 84 °F
Humidity 84%
Rainfall 0.00 in
Snow Depth Not available.
UV 2 out of 12
Pollen Not available.
Air Quality Not available.
Flu Activity Not available.
METAR OIBA 220400Z 08006KT 6000 FEW020 32/29 Q1004

More Conditions Fewer Conditions

Pressure 29.65 in
Visibility 3.7 miles
Clouds Few 2000 ft
Heat Index 115 °F
Dew Point 84 °F
Humidity 84%
Rainfall 0.00 in
Snow Depth Not available.
UV 2 out of 12
Pollen Not available.
Air Quality Not available.
Flu Activity Not available.
METAR OIBA 220400Z 08006KT 6000 FEW020 32/29 Q1004

More Conditions Fewer Conditions

10-Day Weather Forecast

Almanac

Astronomy

Sep. 22, 2014 Rise Set
Actual Time 5:39 AM IRST 5:47 PM IRST
Civil Twilight 5:16 AM IRST 6:10 PM IRST
Nautical Twilight 4:49 AM IRST 6:37 PM IRST
Astronomical Twilight 4:22 AM IRST 7:04 PM IRST
Moon 3:54 AM IRST 4:36 PM IRST
Length of Visible Light 12h 54m
Length of Day
12h 08m
Tomorrow will be 1m 30s shorter.
Waning Crescent, 4% of the Moon is Illuminated
Today
Waning Crescent
Sep 24
New
Oct 1
First Quarter
Oct 8
Full
Oct 15
Last Quarter

Yesterday's Extremes

Country Highs Country Lows

Community

WunderPhotos

Upload Photos

1,755,391 photos uploaded!

Nearby

Snow Depth

Not available.

Earthquake Activity

City Distance Mag. Time & Date
No recent earthquake activity has been reported nearby.
Minimum magnitude displayed is 2.5.

Coastal Water Temperatures

Place Temperature
No Stations Reporting

Nearby Weather Stations